Time;durP1;ratioP1;P1;durP2;ratioP2;P2;SDS_P1;SDS_P2;PMS_P1;PMS_P2;Temp;Humidity;BMP_temperature;BMP_pressure;BME280_temperature;BME280_humidity;BME280_pressure;Samples;Min_cycle;Max_cycle;Signal;HPM_P1;HPM_P2
2021/01/02 00:01:40;;;;;;;6.97;5.80;;;;;;;;;;5042740;28;20241;-66
2021/01/02 00:04:17;;;;;;;6.50;5.90;;;;;;;;;;5047417;28;20476;-67
2021/01/02 00:07:12;;;;;;;8.07;5.50;;;;;;;;;;5043757;28;20453;-66
2021/01/02 00:09:43;;;;;;;6.53;5.50;;;;;;;;;;5032589;28;20461;-66
2021/01/02 00:12:33;;;;;;;11.03;6.80;;;;;;;;;;5036715;28;20484;-67
2021/01/02 00:15:07;;;;;;;6.80;5.83;;;;;;;;;;5049055;28;20805;-67
2021/01/02 00:17:51;;;;;;;12.03;6.30;;;;;;;;;;5050638;28;20514;-67
2021/01/02 00:20:42;;;;;;;7.20;5.87;;;;;;;;;;5047102;28;20471;-65
2021/01/02 00:23:38;;;;;;;9.40;6.30;;;;;;;;;;5024605;28;20464;-66
2021/01/02 00:26:15;;;;;;;8.60;5.67;;;;;;;;;;5050673;28;20529;-65
2021/01/02 00:28:43;;;;;;;7.53;5.77;;;;;;;;;;5048919;28;20513;-65
2021/01/02 00:31:28;;;;;;;8.30;6.20;;;;;;;;;;5042476;28;20471;-66
2021/01/02 00:34:22;;;;;;;8.10;5.87;;;;;;;;;;5044016;28;21052;-66
2021/01/02 00:36:55;;;;;;;8.90;5.63;;;;;;;;;;5045840;28;20531;-66
2021/01/02 00:39:32;;;;;;;8.83;6.80;;;;;;;;;;5048315;28;20491;-66
2021/01/02 00:41:59;;;;;;;10.87;6.80;;;;;;;;;;5043132;28;20583;-65
2021/01/02 00:44:24;;;;;;;6.53;5.40;;;;;;;;;;5042779;28;20463;-66
2021/01/02 00:46:50;;;;;;;6.60;6.00;;;;;;;;;;5044493;28;21020;-66
2021/01/02 00:49:15;;;;;;;5.37;4.83;;;;;;;;;;5049357;28;20221;-67
2021/01/02 00:52:00;;;;;;;6.67;5.50;;;;;;;;;;5048050;28;20308;-64
2021/01/02 00:54:39;;;;;;;7.10;5.17;;;;;;;;;;5041999;28;20286;-65
2021/01/02 00:57:15;;;;;;;6.07;5.50;;;;;;;;;;5040148;28;20540;-66
2021/01/02 01:00:05;;;;;;;7.17;4.80;;;;;;;;;;5048146;28;20482;-65
2021/01/02 01:02:57;;;;;;;6.07;5.47;;;;;;;;;;5038899;28;21039;-68
2021/01/02 01:05:23;;;;;;;6.07;4.40;;;;;;;;;;5031335;28;20457;-67
2021/01/02 01:07:53;;;;;;;5.87;4.97;;;;;;;;;;5042543;28;20478;-68
2021/01/02 01:10:21;;;;;;;6.40;4.40;;;;;;;;;;5048335;28;21020;-67
2021/01/02 01:12:58;;;;;;;5.50;5.00;;;;;;;;;;5031855;28;20568;-66
2021/01/02 01:15:23;;;;;;;5.73;5.13;;;;;;;;;;5045627;28;20486;-66
2021/01/02 01:18:13;;;;;;;5.00;4.33;;;;;;;;;;5042472;28;20467;-66
2021/01/02 01:20:47;;;;;;;5.00;4.20;;;;;;;;;;5042173;28;20222;-66
2021/01/02 01:23:26;;;;;;;4.50;4.10;;;;;;;;;;5028813;28;20479;-66
2021/01/02 01:26:17;;;;;;;4.50;4.10;;;;;;;;;;5041545;28;20445;-67
2021/01/02 01:28:46;;;;;;;4.70;3.80;;;;;;;;;;5043252;28;20464;-67
2021/01/02 01:31:16;;;;;;;4.87;4.37;;;;;;;;;;5055672;28;20806;-67
2021/01/02 01:33:46;;;;;;;6.30;4.53;;;;;;;;;;5051201;28;20958;-67
2021/01/02 01:36:15;;;;;;;4.67;4.10;;;;;;;;;;5027161;28;20522;-66
2021/01/02 01:38:44;;;;;;;5.30;4.27;;;;;;;;;;5040282;28;20794;-67
2021/01/02 01:41:16;;;;;;;4.40;4.00;;;;;;;;;;5030428;28;20564;-67
2021/01/02 01:44:09;;;;;;;4.30;3.80;;;;;;;;;;5041148;28;20536;-67
2021/01/02 01:46:46;;;;;;;4.63;3.60;;;;;;;;;;5041461;28;20551;-67
2021/01/02 01:49:18;;;;;;;5.13;3.90;;;;;;;;;;5028145;28;20459;-67
2021/01/02 01:52:02;;;;;;;5.40;3.73;;;;;;;;;;5050382;28;20470;-68
2021/01/02 01:55:06;;;;;;;5.57;3.80;;;;;;;;;;5039253;28;20480;-68
2021/01/02 01:57:39;;;;;;;4.27;3.87;;;;;;;;;;5026585;28;20475;-66
2021/01/02 02:00:31;;;;;;;4.53;3.60;;;;;;;;;;5032820;28;20477;-68
2021/01/02 02:03:11;;;;;;;4.50;3.87;;;;;;;;;;5031069;28;20464;-68
2021/01/02 02:05:49;;;;;;;5.17;4.10;;;;;;;;;;5051160;28;20458;-67
2021/01/02 02:08:14;;;;;;;4.50;3.70;;;;;;;;;;5047614;28;20827;-67
2021/01/02 02:10:47;;;;;;;4.43;3.13;;;;;;;;;;5041554;28;20476;-67
2021/01/02 02:13:16;;;;;;;5.30;3.97;;;;;;;;;;5041710;28;20229;-67
2021/01/02 02:15:52;;;;;;;4.70;3.33;;;;;;;;;;5031390;28;20480;-67
2021/01/02 02:18:23;;;;;;;3.33;3.00;;;;;;;;;;5075444;28;20448;-66
2021/01/02 02:20:59;;;;;;;4.83;3.60;;;;;;;;;;5050566;28;20556;-67
2021/01/02 02:23:35;;;;;;;3.83;3.00;;;;;;;;;;5045220;28;20788;-66
2021/01/02 02:26:04;;;;;;;5.27;3.17;;;;;;;;;;5058321;28;20489;-65
2021/01/02 02:28:35;;;;;;;4.00;3.60;;;;;;;;;;5046159;28;20523;-66
2021/01/02 02:31:05;;;;;;;6.87;3.63;;;;;;;;;;5045163;28;20469;-66
2021/01/02 02:33:36;;;;;;;7.93;3.90;;;;;;;;;;5050925;28;20490;-66
2021/01/02 02:36:05;;;;;;;5.00;4.37;;;;;;;;;;5053195;28;20473;-66
2021/01/02 02:38:36;;;;;;;4.97;4.50;;;;;;;;;;5047470;28;20459;-66
2021/01/02 02:41:03;;;;;;;4.70;4.17;;;;;;;;;;5045495;28;20554;-66
2021/01/02 02:43:29;;;;;;;6.63;5.07;;;;;;;;;;5058090;28;20464;-60
2021/01/02 02:45:56;;;;;;;7.47;5.23;;;;;;;;;;5047071;28;20598;-60
2021/01/02 02:48:22;;;;;;;4.87;4.37;;;;;;;;;;5051761;28;20555;-60
2021/01/02 02:50:50;;;;;;;5.90;5.27;;;;;;;;;;5052674;28;20469;-60
2021/01/02 02:53:16;;;;;;;7.30;5.70;;;;;;;;;;5048694;28;20562;-60
2021/01/02 02:55:44;;;;;;;6.30;5.30;;;;;;;;;;5046968;28;20758;-60
2021/01/02 02:58:10;;;;;;;5.97;4.67;;;;;;;;;;5041966;28;20218;-60
2021/01/02 03:00:37;;;;;;;8.40;6.03;;;;;;;;;;5051903;28;20854;-60
2021/01/02 03:03:03;;;;;;;6.17;5.60;;;;;;;;;;5042701;28;20521;-60
2021/01/02 03:05:29;;;;;;;11.77;6.20;;;;;;;;;;5052628;28;21015;-60
2021/01/02 03:07:54;;;;;;;6.33;5.73;;;;;;;;;;5053145;28;20503;-60
2021/01/02 03:10:20;;;;;;;6.10;5.47;;;;;;;;;;5047011;28;20295;-60
2021/01/02 03:12:50;;;;;;;8.73;6.73;;;;;;;;;;5045866;28;20315;-60
2021/01/02 03:15:20;;;;;;;7.10;6.47;;;;;;;;;;5050958;28;20471;-60
2021/01/02 03:17:46;;;;;;;10.77;6.57;;;;;;;;;;5053295;28;20527;-60
2021/01/02 03:20:13;;;;;;;8.60;7.07;;;;;;;;;;5047872;28;20478;-60
2021/01/02 03:22:39;;;;;;;9.20;7.60;;;;;;;;;;5044665;28;20251;-60
2021/01/02 03:25:06;;;;;;;10.10;7.37;;;;;;;;;;5050924;28;20491;-60
2021/01/02 03:27:32;;;;;;;10.90;8.80;;;;;;;;;;5052309;28;20477;-60
2021/01/02 03:29:57;;;;;;;9.70;7.97;;;;;;;;;;5048193;28;20464;-60
2021/01/02 03:32:22;;;;;;;10.43;9.17;;;;;;;;;;5044367;28;20233;-60
2021/01/02 03:34:47;;;;;;;11.23;9.50;;;;;;;;;;5051236;28;20629;-60
2021/01/02 03:37:13;;;;;;;11.93;8.80;;;;;;;;;;5052395;28;20224;-60
2021/01/02 03:39:38;;;;;;;10.13;8.67;;;;;;;;;;5046841;28;20717;-60
2021/01/02 03:42:03;;;;;;;11.43;10.30;;;;;;;;;;5044876;28;20224;-60
2021/01/02 03:44:29;;;;;;;12.03;8.40;;;;;;;;;;5050334;28;20228;-60
2021/01/02 03:46:54;;;;;;;9.90;8.90;;;;;;;;;;5052606;28;20220;-60
2021/01/02 03:49:19;;;;;;;10.03;9.00;;;;;;;;;;5044469;28;20669;-60
2021/01/02 03:51:44;;;;;;;11.70;9.20;;;;;;;;;;5044215;28;20304;-60
2021/01/02 03:54:10;;;;;;;12.50;9.87;;;;;;;;;;5051820;28;20293;-59
2021/01/02 03:56:35;;;;;;;14.10;10.00;;;;;;;;;;5045805;28;23232;-60
2021/01/02 03:59:00;;;;;;;10.67;8.97;;;;;;;;;;5045775;28;20226;-60
2021/01/02 04:01:26;;;;;;;11.53;10.30;;;;;;;;;;5044219;28;20223;-60
2021/01/02 04:03:52;;;;;;;14.47;11.13;;;;;;;;;;5047256;28;20519;-60
2021/01/02 04:06:24;;;;;;;11.90;10.70;;;;;;;;;;5044665;28;20250;-60
2021/01/02 04:08:50;;;;;;;16.80;11.87;;;;;;;;;;5050564;28;20532;-59
2021/01/02 04:11:15;;;;;;;16.33;12.43;;;;;;;;;;5051693;28;20492;-60
2021/01/02 04:13:40;;;;;;;14.17;11.80;;;;;;;;;;5045545;28;20216;-60
2021/01/02 04:16:05;;;;;;;14.03;10.90;;;;;;;;;;5046289;28;20319;-60
2021/01/02 04:18:31;;;;;;;13.83;11.33;;;;;;;;;;5045733;28;20243;-60
2021/01/02 04:20:56;;;;;;;11.63;9.80;;;;;;;;;;5045148;28;20281;-60
2021/01/02 04:23:21;;;;;;;14.37;10.87;;;;;;;;;;5051481;28;20234;-60
2021/01/02 04:25:47;;;;;;;13.50;11.07;;;;;;;;;;5051956;28;20280;-60
2021/01/02 04:28:12;;;;;;;12.10;10.90;;;;;;;;;;5043693;28;20217;-59
2021/01/02 04:30:37;;;;;;;13.50;10.17;;;;;;;;;;5044843;28;20225;-59
2021/01/02 04:33:03;;;;;;;15.67;11.23;;;;;;;;;;5050088;28;20213;-66
2021/01/02 04:35:32;;;;;;;13.40;10.40;;;;;;;;;;5049915;28;20586;-66
2021/01/02 04:38:00;;;;;;;12.70;10.20;;;;;;;;;;5028903;28;20698;-66
2021/01/02 04:40:25;;;;;;;11.57;9.67;;;;;;;;;;5042660;28;20476;-65
2021/01/02 04:42:51;;;;;;;14.43;10.50;;;;;;;;;;5050054;28;20457;-66
2021/01/02 04:45:17;;;;;;;14.83;11.03;;;;;;;;;;5048737;28;20213;-65
2021/01/02 04:47:44;;;;;;;11.60;10.20;;;;;;;;;;5030053;28;20217;-66
2021/01/02 04:50:09;;;;;;;12.03;9.80;;;;;;;;;;5043121;28;20474;-66
2021/01/02 04:52:35;;;;;;;11.70;9.50;;;;;;;;;;5043992;28;20598;-67
2021/01/02 04:55:03;;;;;;;11.70;10.40;;;;;;;;;;5043766;28;20280;-66
2021/01/02 04:57:33;;;;;;;11.93;9.80;;;;;;;;;;5043271;28;20460;-66
2021/01/02 04:59:59;;;;;;;9.77;8.60;;;;;;;;;;5044065;28;20460;-67
2021/01/02 05:02:25;;;;;;;12.80;9.90;;;;;;;;;;5036255;28;20461;-66
2021/01/02 05:04:50;;;;;;;11.07;9.93;;;;;;;;;;5048479;28;20472;-67
2021/01/02 05:07:23;;;;;;;9.43;8.43;;;;;;;;;;5037071;28;20546;-66
2021/01/02 05:09:49;;;;;;;11.77;8.57;;;;;;;;;;5049138;28;20576;-66
2021/01/02 05:12:43;;;;;;;12.37;8.90;;;;;;;;;;5043154;28;20475;-66
2021/01/02 05:15:10;;;;;;;10.60;8.80;;;;;;;;;;5027106;28;20456;-66
2021/01/02 05:17:37;;;;;;;10.53;8.33;;;;;;;;;;5044771;28;20479;-66
2021/01/02 05:20:06;;;;;;;9.93;8.50;;;;;;;;;;5048501;28;20523;-66
2021/01/02 05:22:31;;;;;;;11.30;7.93;;;;;;;;;;5045186;28;20510;-66
2021/01/02 05:25:12;;;;;;;9.80;8.10;;;;;;;;;;5041835;28;20471;-65
2021/01/02 05:27:38;;;;;;;9.47;8.00;;;;;;;;;;5042546;28;20230;-66
2021/01/02 05:30:27;;;;;;;10.60;9.50;;;;;;;;;;5048589;28;20473;-66
2021/01/02 05:32:56;;;;;;;10.77;8.03;;;;;;;;;;5048748;28;20560;-67
2021/01/02 05:35:23;;;;;;;9.73;8.00;;;;;;;;;;5045676;28;20455;-66
2021/01/02 05:37:48;;;;;;;10.43;8.53;;;;;;;;;;5042218;28;20460;-66
2021/01/02 05:40:36;;;;;;;9.90;8.17;;;;;;;;;;5044561;28;20506;-66
2021/01/02 05:43:02;;;;;;;8.47;7.50;;;;;;;;;;5028837;28;20571;-65
2021/01/02 05:45:28;;;;;;;10.20;8.37;;;;;;;;;;5041831;28;20454;-66
2021/01/02 05:48:10;;;;;;;8.53;7.63;;;;;;;;;;5048886;28;20226;-66
2021/01/02 05:50:40;;;;;;;11.07;8.27;;;;;;;;;;5047998;28;20541;-66
2021/01/02 05:53:18;;;;;;;10.80;8.67;;;;;;;;;;5042712;28;21433;-65
2021/01/02 05:55:43;;;;;;;9.47;7.13;;;;;;;;;;5041717;28;20487;-65
2021/01/02 05:58:16;;;;;;;9.73;7.87;;;;;;;;;;5037090;28;20480;-67
2021/01/02 06:00:45;;;;;;;8.13;7.33;;;;;;;;;;5046959;28;20580;-64
2021/01/02 06:03:24;;;;;;;10.63;8.40;;;;;;;;;;5039089;28;20458;-65
2021/01/02 06:05:59;;;;;;;10.40;8.50;;;;;;;;;;5045704;28;20467;-66
2021/01/02 06:08:35;;;;;;;9.60;8.43;;;;;;;;;;5049478;28;20466;-66
2021/01/02 06:11:03;;;;;;;9.93;8.70;;;;;;;;;;5048368;28;20497;-66
2021/01/02 06:13:30;;;;;;;11.90;8.20;;;;;;;;;;5035628;28;20544;-66
2021/01/02 06:16:00;;;;;;;13.10;10.40;;;;;;;;;;5046843;28;20476;-65
2021/01/02 06:18:27;;;;;;;10.43;9.20;;;;;;;;;;5028929;28;20464;-66
2021/01/02 06:20:56;;;;;;;11.90;8.60;;;;;;;;;;5039613;28;20821;-65
2021/01/02 06:23:22;;;;;;;10.43;8.27;;;;;;;;;;5040945;28;20986;-66
2021/01/02 06:25:47;;;;;;;9.80;7.97;;;;;;;;;;5042547;28;20464;-65
2021/01/02 06:28:16;;;;;;;12.00;8.80;;;;;;;;;;5047676;28;20473;-66
2021/01/02 06:30:42;;;;;;;9.93;8.87;;;;;;;;;;5047575;28;20233;-66
2021/01/02 06:33:16;;;;;;;11.23;8.63;;;;;;;;;;5040954;28;20465;-65
2021/01/02 06:35:41;;;;;;;9.80;8.60;;;;;;;;;;5041295;28;20487;-66
2021/01/02 06:38:09;;;;;;;9.70;7.80;;;;;;;;;;5048014;28;20461;-67
2021/01/02 06:40:40;;;;;;;11.50;8.90;;;;;;;;;;5048710;28;20233;-66
2021/01/02 06:43:07;;;;;;;9.43;8.43;;;;;;;;;;5029001;28;20499;-65
2021/01/02 06:45:38;;;;;;;9.20;8.27;;;;;;;;;;5041614;28;20453;-66
2021/01/02 06:48:15;;;;;;;10.47;8.20;;;;;;;;;;5045780;28;20839;-66
2021/01/02 06:50:41;;;;;;;8.93;8.03;;;;;;;;;;5048134;28;20556;-66
2021/01/02 06:53:23;;;;;;;9.07;8.07;;;;;;;;;;5043646;28;20463;-66
2021/01/02 06:56:02;;;;;;;9.90;8.00;;;;;;;;;;5041069;28;20456;-65
2021/01/02 06:58:40;;;;;;;10.20;8.70;;;;;;;;;;5040489;28;20521;-66
2021/01/02 07:01:06;;;;;;;9.43;8.30;;;;;;;;;;5045256;28;20641;-66
2021/01/02 07:03:41;;;;;;;10.33;9.03;;;;;;;;;;5044607;28;20465;-66
2021/01/02 07:06:18;;;;;;;9.03;7.90;;;;;;;;;;5044001;28;20448;-67
2021/01/02 07:08:44;;;;;;;9.57;7.90;;;;;;;;;;5032693;28;20943;-65
2021/01/02 07:11:30;;;;;;;9.23;8.40;;;;;;;;;;5044243;28;20469;-66
2021/01/02 07:14:07;;;;;;;11.60;9.43;;;;;;;;;;5047728;28;20800;-65
2021/01/02 07:16:57;;;;;;;10.93;8.47;;;;;;;;;;5050572;28;20496;-65
2021/01/02 07:19:31;;;;;;;10.03;8.70;;;;;;;;;;5052139;28;20472;-66
2021/01/02 07:22:11;;;;;;;13.73;8.50;;;;;;;;;;5037561;28;20480;-65
2021/01/02 07:24:37;;;;;;;11.07;8.77;;;;;;;;;;5051395;28;20463;-63
2021/01/02 07:27:04;;;;;;;11.70;9.03;;;;;;;;;;5048043;28;20920;-65
2021/01/02 07:29:32;;;;;;;9.97;8.57;;;;;;;;;;5044530;28;20234;-65
2021/01/02 07:32:14;;;;;;;10.30;8.70;;;;;;;;;;5055995;28;20604;-66
2021/01/02 07:34:50;;;;;;;10.87;8.93;;;;;;;;;;5043708;28;20931;-66
2021/01/02 07:37:17;;;;;;;11.50;10.27;;;;;;;;;;5044375;28;20476;-66
2021/01/02 07:40:05;;;;;;;11.97;9.00;;;;;;;;;;5050659;28;20473;-65
2021/01/02 07:42:32;;;;;;;9.57;8.50;;;;;;;;;;5050229;28;20457;-67
2021/01/02 07:44:59;;;;;;;11.20;9.97;;;;;;;;;;5045932;28;20462;-66
2021/01/02 07:47:24;;;;;;;11.03;9.73;;;;;;;;;;5044052;28;20518;-65
2021/01/02 07:49:50;;;;;;;10.93;9.83;;;;;;;;;;5047110;28;20996;-64
2021/01/02 07:52:15;;;;;;;11.87;10.17;;;;;;;;;;5049567;28;20308;-66
2021/01/02 07:54:41;;;;;;;10.63;9.37;;;;;;;;;;5046010;28;20224;-65
2021/01/02 07:57:07;;;;;;;13.93;10.40;;;;;;;;;;5039678;28;20288;-67
2021/01/02 07:59:35;;;;;;;13.87;10.00;;;;;;;;;;5033331;28;20685;-65
2021/01/02 08:02:02;;;;;;;11.50;9.80;;;;;;;;;;5036531;28;20548;-64
2021/01/02 08:04:28;;;;;;;10.33;8.97;;;;;;;;;;5037104;28;20470;-65
2021/01/02 08:07:04;;;;;;;12.27;10.67;;;;;;;;;;5049622;28;20465;-65
2021/01/02 08:09:31;;;;;;;11.20;10.03;;;;;;;;;;5036886;28;20495;-64
2021/01/02 08:12:07;;;;;;;12.37;9.90;;;;;;;;;;5048639;28;20762;-63
2021/01/02 08:14:34;;;;;;;12.77;9.80;;;;;;;;;;5050396;28;20836;-62
2021/01/02 08:17:04;;;;;;;12.70;9.87;;;;;;;;;;5036527;28;20463;-66
2021/01/02 08:19:34;;;;;;;10.87;9.63;;;;;;;;;;5049828;28;20564;-66
2021/01/02 08:22:00;;;;;;;12.63;9.73;;;;;;;;;;5036950;28;20435;-65
2021/01/02 08:24:25;;;;;;;12.93;10.33;;;;;;;;;;5050009;28;20458;-65
2021/01/02 08:26:51;;;;;;;11.67;9.80;;;;;;;;;;5043724;28;20544;-65
2021/01/02 08:29:16;;;;;;;12.67;10.40;;;;;;;;;;5054589;28;20223;-65
2021/01/02 08:31:54;;;;;;;12.53;11.23;;;;;;;;;;5043795;28;20352;-64
2021/01/02 08:34:31;;;;;;;13.13;11.03;;;;;;;;;;5050787;28;20212;-65
2021/01/02 08:36:58;;;;;;;14.70;11.30;;;;;;;;;;5047171;28;20488;-64
2021/01/02 08:39:23;;;;;;;13.83;11.10;;;;;;;;;;5042993;28;20467;-65
2021/01/02 08:41:53;;;;;;;14.37;10.33;;;;;;;;;;5041952;28;20480;-65
2021/01/02 08:44:30;;;;;;;12.80;11.40;;;;;;;;;;5043808;28;20251;-65
2021/01/02 08:46:55;;;;;;;12.87;11.40;;;;;;;;;;5048812;28;20466;-65
2021/01/02 08:49:35;;;;;;;11.87;10.50;;;;;;;;;;5042561;28;20544;-66
2021/01/02 08:52:21;;;;;;;14.13;9.47;;;;;;;;;;5042448;28;20241;-64
2021/01/02 08:54:48;;;;;;;12.57;10.13;;;;;;;;;;5045723;28;20498;-64
2021/01/02 08:57:29;;;;;;;11.27;10.17;;;;;;;;;;5046971;28;20484;-64
2021/01/02 09:00:15;;;;;;;11.90;9.60;;;;;;;;;;5049064;28;20623;-64
2021/01/02 09:03:02;;;;;;;11.70;10.03;;;;;;;;;;5037506;28;21028;-65
2021/01/02 09:05:35;;;;;;;12.90;11.50;;;;;;;;;;5043311;28;20490;-65
2021/01/02 09:08:16;;;;;;;13.03;10.10;;;;;;;;;;5054423;28;20521;-64
2021/01/02 09:10:43;;;;;;;10.47;9.23;;;;;;;;;;5045485;28;20804;-64
2021/01/02 09:13:19;;;;;;;11.50;9.70;;;;;;;;;;5038623;28;20542;-65
2021/01/02 09:15:56;;;;;;;12.67;9.80;;;;;;;;;;5047161;28;20487;-65
2021/01/02 09:18:31;;;;;;;11.23;10.00;;;;;;;;;;5029097;28;20551;-64
2021/01/02 09:21:15;;;;;;;13.90;11.57;;;;;;;;;;5041779;28;20859;-65
2021/01/02 09:23:42;;;;;;;13.33;10.73;;;;;;;;;;5034827;28;20462;-62
2021/01/02 09:26:24;;;;;;;13.23;11.00;;;;;;;;;;5042712;28;20427;-64
2021/01/02 09:28:51;;;;;;;14.43;11.30;;;;;;;;;;5042487;28;20538;-64
2021/01/02 09:31:16;;;;;;;15.90;10.60;;;;;;;;;;5039180;28;20477;-64
2021/01/02 09:33:42;;;;;;;12.67;10.90;;;;;;;;;;5047671;28;20460;-63
2021/01/02 09:36:07;;;;;;;11.60;9.90;;;;;;;;;;5042435;28;20291;-64
2021/01/02 09:38:32;;;;;;;12.80;11.33;;;;;;;;;;5043665;28;20214;-65
2021/01/02 09:40:58;;;;;;;11.17;9.93;;;;;;;;;;5040707;28;20223;-64
2021/01/02 09:43:24;;;;;;;11.57;10.37;;;;;;;;;;5044516;28;20223;-64
2021/01/02 09:45:49;;;;;;;12.20;10.90;;;;;;;;;;5048626;28;20225;-64
2021/01/02 09:48:17;;;;;;;14.00;10.67;;;;;;;;;;5044962;28;20617;-65
2021/01/02 09:50:42;;;;;;;11.40;10.20;;;;;;;;;;5048710;28;20235;-64
2021/01/02 09:53:09;;;;;;;12.50;11.20;;;;;;;;;;5045893;28;20860;-65
2021/01/02 09:55:35;;;;;;;11.37;9.93;;;;;;;;;;5041682;28;20539;-65
2021/01/02 09:58:00;;;;;;;13.20;10.07;;;;;;;;;;5042059;28;20470;-64
2021/01/02 10:00:27;;;;;;;11.97;10.23;;;;;;;;;;5047364;28;20316;-65
2021/01/02 10:02:53;;;;;;;12.40;10.90;;;;;;;;;;5035894;28;20229;-64
2021/01/02 10:05:19;;;;;;;13.57;11.20;;;;;;;;;;5048283;28;20453;-64
2021/01/02 10:07:44;;;;;;;15.57;10.97;;;;;;;;;;5034707;28;20280;-63
2021/01/02 10:10:11;;;;;;;15.30;11.63;;;;;;;;;;5048209;28;20959;-64
2021/01/02 10:12:36;;;;;;;14.03;11.20;;;;;;;;;;5047593;28;20221;-66
2021/01/02 10:15:15;;;;;;;12.97;10.97;;;;;;;;;;5048118;28;20989;-61
2021/01/02 10:17:40;;;;;;;11.73;10.47;;;;;;;;;;5033512;28;20211;-60
2021/01/02 10:20:15;;;;;;;11.60;10.30;;;;;;;;;;5042511;28;21022;-64
2021/01/02 10:22:40;;;;;;;14.90;11.10;;;;;;;;;;5051404;28;20587;-62
2021/01/02 10:25:07;;;;;;;11.17;9.83;;;;;;;;;;5046838;28;20450;-60
2021/01/02 10:27:32;;;;;;;13.00;10.70;;;;;;;;;;5047647;28;20299;-61
2021/01/02 10:29:57;;;;;;;15.57;12.40;;;;;;;;;;5043541;28;20528;-59
2021/01/02 10:32:25;;;;;;;13.70;10.97;;;;;;;;;;5042029;28;20557;-61
2021/01/02 10:34:50;;;;;;;14.50;12.93;;;;;;;;;;5046640;28;20564;-61
2021/01/02 10:37:21;;;;;;;12.43;11.10;;;;;;;;;;5052851;28;20457;-60
2021/01/02 10:39:47;;;;;;;12.00;10.73;;;;;;;;;;5040320;28;20224;-60
2021/01/02 10:42:14;;;;;;;13.63;12.23;;;;;;;;;;5052461;28;20528;-59
2021/01/02 10:44:44;;;;;;;15.50;12.37;;;;;;;;;;5047171;28;20536;-59
2021/01/02 10:47:09;;;;;;;14.07;11.37;;;;;;;;;;5045123;28;20474;-61
2021/01/02 10:49:34;;;;;;;21.60;12.43;;;;;;;;;;5054933;28;20461;-59
2021/01/02 10:51:59;;;;;;;15.03;11.00;;;;;;;;;;5045045;28;20302;-59
2021/01/02 10:54:25;;;;;;;15.30;12.57;;;;;;;;;;5050068;28;20217;-60
2021/01/02 10:56:52;;;;;;;12.20;10.97;;;;;;;;;;5049753;28;20220;-61
2021/01/02 10:59:20;;;;;;;11.87;10.40;;;;;;;;;;5048560;28;20260;-58
2021/01/02 11:01:50;;;;;;;15.90;11.10;;;;;;;;;;5043741;28;20479;-60
2021/01/02 11:04:16;;;;;;;15.80;10.93;;;;;;;;;;5049170;28;20512;-59
2021/01/02 11:06:43;;;;;;;19.00;15.43;;;;;;;;;;5055889;28;20478;-60
2021/01/02 11:09:10;;;;;;;17.43;14.50;;;;;;;;;;5049923;28;20457;-59
2021/01/02 11:11:36;;;;;;;17.53;13.23;;;;;;;;;;5052365;28;20900;-60
2021/01/02 11:14:03;;;;;;;17.77;14.73;;;;;;;;;;5047816;28;20536;-60
2021/01/02 11:16:29;;;;;;;22.00;18.23;;;;;;;;;;5045309;28;20656;-59
2021/01/02 11:18:55;;;;;;;20.23;15.40;;;;;;;;;;5049575;28;20481;-59
2021/01/02 11:21:20;;;;;;;19.97;16.77;;;;;;;;;;5050776;28;20575;-59
2021/01/02 11:23:45;;;;;;;19.83;17.03;;;;;;;;;;5047701;28;20213;-60
2021/01/02 11:26:10;;;;;;;13.47;11.33;;;;;;;;;;5044882;28;20302;-59
2021/01/02 11:28:36;;;;;;;12.53;10.70;;;;;;;;;;5050241;28;20223;-59
2021/01/02 11:31:01;;;;;;;13.13;10.40;;;;;;;;;;5051648;28;20614;-60
2021/01/02 11:33:27;;;;;;;16.67;12.73;;;;;;;;;;5046657;28;20271;-60
2021/01/02 11:35:52;;;;;;;15.33;12.60;;;;;;;;;;5045324;28;20678;-59
2021/01/02 11:38:17;;;;;;;13.70;12.30;;;;;;;;;;5050358;28;20308;-59
2021/01/02 11:40:42;;;;;;;14.57;12.30;;;;;;;;;;5052691;28;20238;-59
2021/01/02 11:43:08;;;;;;;13.20;11.70;;;;;;;;;;5051475;28;20307;-60
2021/01/02 11:45:33;;;;;;;14.80;11.30;;;;;;;;;;5050564;28;20231;-59
2021/01/02 11:47:58;;;;;;;12.37;11.20;;;;;;;;;;5044530;28;20248;-60
2021/01/02 11:50:23;;;;;;;12.80;11.50;;;;;;;;;;5050462;28;20643;-60
2021/01/02 11:52:49;;;;;;;16.53;12.90;;;;;;;;;;5044706;28;20668;-59
2021/01/02 11:55:14;;;;;;;12.17;10.30;;;;;;;;;;5045555;28;20283;-59
2021/01/02 11:57:39;;;;;;;12.20;10.90;;;;;;;;;;5045150;28;20239;-60
2021/01/02 12:00:07;;;;;;;13.57;11.43;;;;;;;;;;5050380;28;20222;-60
2021/01/02 12:02:32;;;;;;;13.10;11.37;;;;;;;;;;5039653;28;20359;-60
2021/01/02 12:04:57;;;;;;;14.67;12.40;;;;;;;;;;5051088;28;20514;-59
2021/01/02 12:07:23;;;;;;;17.77;13.10;;;;;;;;;;5036954;28;20218;-60
2021/01/02 12:09:48;;;;;;;13.70;11.03;;;;;;;;;;5050036;28;20615;-59
2021/01/02 12:12:13;;;;;;;13.07;11.40;;;;;;;;;;5046270;28;20232;-59
2021/01/02 12:14:38;;;;;;;14.63;10.83;;;;;;;;;;5043588;28;20231;-61
2021/01/02 12:17:09;;;;;;;17.20;12.03;;;;;;;;;;5047414;28;20556;-60
2021/01/02 12:19:35;;;;;;;13.50;11.47;;;;;;;;;;5050799;28;20565;-60
2021/01/02 12:22:05;;;;;;;15.67;13.27;;;;;;;;;;5040025;28;20519;-60
2021/01/02 12:24:30;;;;;;;16.07;12.20;;;;;;;;;;5050234;28;20238;-60
2021/01/02 12:27:04;;;;;;;17.10;12.30;;;;;;;;;;5047545;28;20525;-60
2021/01/02 12:29:30;;;;;;;17.27;13.77;;;;;;;;;;5043241;28;20544;-59
2021/01/02 12:31:58;;;;;;;15.90;13.33;;;;;;;;;;5045457;28;20972;-60
2021/01/02 12:34:28;;;;;;;16.10;12.80;;;;;;;;;;5049122;28;20820;-60
2021/01/02 12:36:54;;;;;;;15.67;12.47;;;;;;;;;;5049341;28;20539;-61
2021/01/02 12:39:23;;;;;;;21.73;14.73;;;;;;;;;;5042642;28;20500;-61
2021/01/02 12:41:49;;;;;;;14.50;12.70;;;;;;;;;;5043665;28;20443;-60
2021/01/02 12:44:15;;;;;;;16.80;12.77;;;;;;;;;;5040674;28;20526;-61
2021/01/02 12:46:46;;;;;;;16.43;13.97;;;;;;;;;;5045877;28;20460;-60
2021/01/02 12:49:14;;;;;;;18.40;13.60;;;;;;;;;;5046704;28;20206;-60
2021/01/02 12:51:39;;;;;;;17.13;13.47;;;;;;;;;;5045583;28;20502;-59
2021/01/02 12:54:05;;;;;;;17.47;13.57;;;;;;;;;;5049742;28;20443;-60
2021/01/02 12:56:30;;;;;;;16.90;13.00;;;;;;;;;;5046658;28;20569;-60
2021/01/02 12:58:55;;;;;;;15.70;13.30;;;;;;;;;;5041668;28;20304;-59
2021/01/02 13:01:21;;;;;;;14.00;12.50;;;;;;;;;;5041499;28;20228;-59
2021/01/02 13:03:46;;;;;;;15.73;12.60;;;;;;;;;;5045137;28;20681;-59
2021/01/02 13:06:13;;;;;;;18.57;13.40;;;;;;;;;;5041494;28;20218;-59
2021/01/02 13:08:38;;;;;;;15.97;13.47;;;;;;;;;;5030364;28;20256;-59
2021/01/02 13:11:06;;;;;;;16.27;13.83;;;;;;;;;;5042657;28;20548;-59
2021/01/02 13:13:31;;;;;;;21.20;13.20;;;;;;;;;;5023818;28;20359;-59
2021/01/02 13:15:57;;;;;;;16.80;13.27;;;;;;;;;;5048841;28;20473;-59
2021/01/02 13:18:22;;;;;;;18.70;14.63;;;;;;;;;;5042330;28;20301;-60
2021/01/02 13:20:47;;;;;;;16.83;13.93;;;;;;;;;;5044164;28;20282;-60
2021/01/02 13:23:13;;;;;;;19.07;14.57;;;;;;;;;;5036671;28;20688;-60
2021/01/02 13:25:38;;;;;;;18.87;14.83;;;;;;;;;;5047366;28;20296;-59
2021/01/02 13:28:03;;;;;;;17.33;13.57;;;;;;;;;;5036390;28;20262;-59
2021/01/02 13:30:29;;;;;;;17.67;13.80;;;;;;;;;;5034623;28;20217;-59
2021/01/02 13:32:56;;;;;;;20.40;15.70;;;;;;;;;;5049494;28;20227;-59
2021/01/02 13:35:21;;;;;;;21.90;16.00;;;;;;;;;;5046451;28;20537;-60
2021/01/02 13:37:46;;;;;;;18.77;14.63;;;;;;;;;;5042334;28;20456;-60
2021/01/02 13:40:12;;;;;;;20.00;14.70;;;;;;;;;;5045135;28;20296;-60
2021/01/02 13:42:37;;;;;;;19.10;15.27;;;;;;;;;;5049132;28;20230;-58
2021/01/02 13:45:04;;;;;;;16.23;13.50;;;;;;;;;;5046158;28;20230;-59
2021/01/02 13:47:31;;;;;;;21.90;15.43;;;;;;;;;;5042304;28;20220;-59
2021/01/02 13:49:57;;;;;;;17.50;15.57;;;;;;;;;;5051212;28;20489;-59
2021/01/02 13:52:22;;;;;;;20.00;14.20;;;;;;;;;;5042153;28;20845;-61
2021/01/02 13:54:48;;;;;;;18.53;15.50;;;;;;;;;;5045932;28;20209;-60
2021/01/02 13:57:14;;;;;;;18.93;15.17;;;;;;;;;;5045870;28;20545;-61
2021/01/02 13:59:39;;;;;;;16.93;14.20;;;;;;;;;;5048857;28;20520;-60
2021/01/02 14:02:05;;;;;;;16.90;14.30;;;;;;;;;;5038162;28;20218;-60
2021/01/02 14:04:30;;;;;;;15.40;13.77;;;;;;;;;;5048604;28;20223;-60
2021/01/02 14:06:57;;;;;;;17.10;14.30;;;;;;;;;;5036625;28;20217;-60
2021/01/02 14:09:24;;;;;;;14.83;13.27;;;;;;;;;;5048127;28;20642;-60
2021/01/02 14:11:50;;;;;;;16.63;13.73;;;;;;;;;;5044204;28;21003;-60
2021/01/02 14:14:15;;;;;;;18.10;13.90;;;;;;;;;;5047194;28;20502;-61
2021/01/02 14:16:51;;;;;;;17.23;14.80;;;;;;;;;;5052835;28;20467;-60
2021/01/02 14:19:17;;;;;;;17.33;14.77;;;;;;;;;;5052087;28;20227;-59
2021/01/02 14:21:43;;;;;;;20.60;13.47;;;;;;;;;;5041806;28;20460;-59
2021/01/02 14:24:09;;;;;;;16.97;13.90;;;;;;;;;;5052801;28;20459;-60
2021/01/02 14:26:34;;;;;;;19.57;16.27;;;;;;;;;;5046699;28;21030;-60
2021/01/02 14:28:59;;;;;;;15.50;13.37;;;;;;;;;;5046203;28;20292;-59
2021/01/02 14:31:30;;;;;;;16.73;14.70;;;;;;;;;;5052259;28;20271;-59
2021/01/02 14:33:55;;;;;;;19.30;15.03;;;;;;;;;;5052773;28;20290;-60
2021/01/02 14:36:20;;;;;;;20.07;15.60;;;;;;;;;;5046330;28;20449;-60
2021/01/02 14:38:46;;;;;;;20.07;16.37;;;;;;;;;;5046141;28;20714;-60
2021/01/02 14:41:11;;;;;;;18.13;15.20;;;;;;;;;;5045541;28;20221;-59
2021/01/02 14:43:36;;;;;;;17.60;13.93;;;;;;;;;;5045986;28;20223;-60